createdAt,value
2023-01-11T00:04:42.081Z,91.93
2023-01-11T00:09:44.741Z,91.88
2023-01-11T00:14:46.761Z,91.68
2023-01-11T00:19:50.070Z,92.47
2023-01-11T00:24:52.056Z,91.85
2023-01-11T00:29:54.073Z,91.83
2023-01-11T00:34:57.656Z,92.35
2023-01-11T00:39:59.659Z,91.69
2023-01-11T00:45:20.229Z,91.34
2023-01-11T00:50:23.583Z,91.90
2023-01-11T00:55:26.433Z,91.83
2023-01-11T01:00:29.264Z,92.15
2023-01-11T01:05:33.403Z,91.61
2023-01-11T01:10:35.377Z,92.08
2023-01-11T01:15:37.404Z,92.35
2023-01-11T01:20:40.801Z,92.52
2023-01-11T01:25:42.757Z,92.43
2023-01-11T01:30:50.004Z,93.28
2023-01-11T01:35:53.339Z,92.91
2023-01-11T01:40:56.855Z,92.95
2023-01-11T01:45:58.792Z,92.93
2023-01-11T01:51:04.438Z,92.70
2023-01-11T01:56:10.270Z,93.08
2023-01-11T02:01:31.889Z,92.28
2023-01-11T02:06:35.587Z,91.41
2023-01-11T02:11:43.271Z,91.51
2023-01-11T02:16:45.233Z,91.47
2023-01-11T02:22:03.943Z,91.05
2023-01-11T02:27:33.367Z,91.64
2023-01-11T02:32:46.878Z,92.00
2023-01-11T02:38:01.547Z,92.38
2023-01-11T02:43:32.248Z,91.90
2023-01-11T02:48:46.268Z,92.44
2023-01-11T02:53:53.597Z,92.54
2023-01-11T02:58:57.868Z,92.24
2023-01-11T03:04:01.171Z,92.18
2023-01-11T03:09:26.089Z,91.41
2023-01-11T03:14:36.801Z,92.51
2023-01-11T03:19:43.993Z,92.67
2023-01-11T03:24:49.876Z,92.07
2023-01-11T03:29:58.559Z,92.29
2023-01-11T03:35:13.650Z,91.75
2023-01-11T03:40:21.588Z,92.39
2023-01-11T03:45:25.413Z,92.69
2023-01-11T03:50:29.672Z,93.47
2023-01-11T03:55:37.585Z,93.67
2023-01-11T04:00:40.574Z,93.23
2023-01-11T04:05:47.600Z,93.02
2023-01-11T04:10:49.600Z,93.01
2023-01-11T04:15:52.721Z,93.40
2023-01-11T04:20:56.047Z,92.03
2023-01-11T04:25:57.993Z,93.12
2023-01-11T04:30:59.977Z,92.54
2023-01-11T04:36:05.797Z,92.33
2023-01-11T04:41:26.373Z,91.82
2023-01-11T04:46:28.307Z,92.63
2023-01-11T04:51:31.636Z,92.90
2023-01-11T04:56:33.643Z,93.01
2023-01-11T05:01:35.648Z,92.56
2023-01-11T05:06:39.100Z,92.46
2023-01-11T05:11:41.318Z,92.53
2023-01-11T05:16:43.900Z,92.50
2023-01-11T05:21:47.240Z,93.21
2023-01-11T05:26:50.199Z,92.78
2023-01-11T05:31:52.296Z,92.66
2023-01-11T05:36:55.631Z,92.78
2023-01-11T05:41:57.578Z,93.35
2023-01-11T05:46:59.683Z,92.64
2023-01-11T05:52:02.976Z,92.97
2023-01-11T05:57:10.470Z,93.10
2023-01-11T06:02:12.642Z,92.85
2023-01-11T06:07:16.240Z,93.07
2023-01-11T06:12:18.244Z,93.01
2023-01-11T06:17:20.192Z,92.97
2023-01-11T06:22:23.455Z,93.34
2023-01-11T06:27:25.462Z,92.54
2023-01-11T06:32:29.242Z,92.92
2023-01-11T06:37:32.911Z,92.99
2023-01-11T06:42:34.921Z,92.99
2023-01-11T06:47:36.896Z,92.94
2023-01-11T06:52:40.174Z,92.92
2023-01-11T06:57:42.504Z,92.84
2023-01-11T07:02:44.879Z,92.97
2023-01-11T07:07:48.251Z,93.08
2023-01-11T07:12:50.303Z,93.60
2023-01-11T07:17:54.282Z,93.76
2023-01-11T07:23:01.187Z,93.40
2023-01-11T07:28:05.593Z,93.35
2023-01-11T07:33:07.739Z,93.56
2023-01-11T07:38:11.729Z,93.21
2023-01-11T07:43:14.980Z,93.24
2023-01-11T07:48:21.222Z,93.29
2023-01-11T07:53:26.235Z,93.75
2023-01-11T07:58:28.195Z,93.16
2023-01-11T08:03:30.398Z,92.24
2023-01-11T08:08:33.815Z,91.90
2023-01-11T08:13:54.380Z,92.13
2023-01-11T08:18:56.411Z,89.84
2023-01-11T08:24:00.048Z,91.61
2023-01-11T08:29:02.007Z,91.01
2023-01-11T08:34:04.006Z,90.34
2023-01-11T08:39:07.456Z,90.49
2023-01-11T08:44:11.695Z,90.76
2023-01-11T08:49:13.844Z,90.73
2023-01-11T08:54:17.613Z,88.88
2023-01-11T08:59:20.071Z,88.40
2023-01-11T09:04:25.820Z,85.63
2023-01-11T09:09:30.305Z,83.06
2023-01-11T09:14:32.344Z,79.81
2023-01-11T09:19:34.412Z,80.42
2023-01-11T09:24:37.732Z,77.12
2023-01-11T09:29:39.783Z,79.35
2023-01-11T09:34:42.927Z,77.61
2023-01-11T09:39:46.792Z,78.29
2023-01-11T09:44:50.855Z,80.63
2023-01-11T09:49:57.187Z,82.04
2023-01-11T09:55:01.367Z,79.24
2023-01-11T10:00:13.171Z,78.02
2023-01-11T10:05:36.892Z,75.56
2023-01-11T10:18:29.557Z,76.56
2023-01-11T10:21:49.436Z,77.89
2023-01-11T10:26:57.133Z,78.62
2023-01-11T10:32:13.434Z,76.08
2023-01-11T10:37:20.751Z,79.16
2023-01-11T10:42:28.635Z,75.89
2023-01-11T10:47:37.048Z,76.17
2023-01-11T10:52:47.864Z,76.58
2023-01-11T10:58:04.957Z,75.34
2023-01-11T11:03:22.030Z,74.34
2023-01-11T11:08:30.594Z,72.88
2023-01-11T11:13:47.354Z,72.37
2023-01-11T11:18:50.763Z,73.10
2023-01-11T11:23:56.985Z,72.58
2023-01-11T11:29:02.624Z,72.79
2023-01-11T11:34:06.916Z,76.62
2023-01-11T11:39:20.403Z,75.41
2023-01-11T11:44:25.085Z,73.88
2023-01-11T11:49:28.315Z,75.58
2023-01-11T11:54:32.901Z,72.27
2023-01-11T11:59:36.323Z,72.86
2023-01-11T12:04:47.059Z,72.78
2023-01-11T12:09:55.398Z,72.49
2023-01-11T12:15:21.734Z,72.45
2023-01-11T12:20:31.321Z,75.08
2023-01-11T12:25:40.393Z,74.41
2023-01-11T12:30:49.931Z,72.40
2023-01-11T12:36:03.088Z,74.62
2023-01-11T12:41:44.492Z,73.80
2023-01-11T12:46:59.414Z,75.46
2023-01-11T12:52:20.941Z,77.46
2023-01-11T12:57:29.974Z,77.02
2023-01-11T13:02:50.668Z,75.95
2023-01-11T13:08:05.275Z,75.73
2023-01-11T13:13:12.984Z,76.82
2023-01-11T13:18:28.967Z,76.45
2023-01-11T13:23:39.220Z,76.06
2023-01-11T13:28:44.498Z,79.14
2023-01-11T13:33:53.758Z,79.96
2023-01-11T13:39:01.345Z,82.98
2023-01-11T13:44:11.549Z,79.02
2023-01-11T13:49:37.145Z,78.37
2023-01-11T13:54:45.629Z,75.81
2023-01-11T13:59:52.753Z,73.46
2023-01-11T14:05:01.116Z,71.54
2023-01-11T14:10:24.341Z,72.36
2023-01-11T14:15:32.265Z,69.28
2023-01-11T14:20:43.791Z,68.31
2023-01-11T14:26:07.613Z,64.97
2023-01-11T14:31:26.362Z,62.67
2023-01-11T14:36:56.781Z,62.00
2023-01-11T14:42:22.008Z,62.66
2023-01-11T14:47:35.591Z,59.51
2023-01-11T14:52:40.895Z,58.16
2023-01-11T14:57:44.430Z,57.96
2023-01-11T15:02:47.225Z,56.56
2023-01-11T15:07:50.701Z,56.83
2023-01-11T15:12:56.148Z,54.85
2023-01-11T15:18:17.800Z,54.47
2023-01-11T15:23:21.529Z,58.38
2023-01-11T15:28:35.603Z,58.92
2023-01-11T15:33:48.417Z,57.77
2023-01-11T15:38:59.841Z,57.74
2023-01-11T15:44:25.147Z,57.78
2023-01-11T15:49:58.307Z,59.38
2023-01-11T15:55:27.548Z,57.19
2023-01-11T16:01:07.785Z,58.78
2023-01-11T16:06:17.688Z,58.95
2023-01-11T16:11:31.829Z,58.53
2023-01-11T16:16:40.298Z,55.73
2023-01-11T16:21:46.826Z,55.50
2023-01-11T16:26:55.581Z,56.24
2023-01-11T16:32:00.414Z,55.09
2023-01-11T16:37:20.456Z,55.57
2023-01-11T16:42:26.047Z,56.98
2023-01-11T16:47:28.108Z,57.78
2023-01-11T16:52:38.805Z,61.30
2023-01-11T16:57:46.312Z,58.13
2023-01-11T17:02:50.143Z,55.69
2023-01-11T17:07:52.212Z,58.11
2023-01-11T17:13:34.714Z,57.62
2023-01-11T17:18:39.741Z,57.99
2023-01-11T17:23:43.520Z,58.99
2023-01-11T17:28:48.351Z,58.32
2023-01-11T17:34:00.688Z,56.08
2023-01-11T17:39:05.475Z,56.86
2023-01-11T17:44:34.888Z,55.76
2023-01-11T17:49:38.300Z,55.16
2023-01-11T17:54:40.353Z,54.75
2023-01-11T17:59:43.771Z,55.73
2023-01-11T18:04:56.568Z,56.05
2023-01-11T18:10:01.555Z,56.22
2023-01-11T18:15:08.029Z,57.34
2023-01-11T18:20:36.638Z,58.76
2023-01-11T18:25:38.798Z,56.49
2023-01-11T18:30:45.767Z,56.69
2023-01-11T18:35:49.765Z,54.70
2023-01-11T18:40:53.364Z,53.93
2023-01-11T18:45:57.008Z,56.23
2023-01-11T18:50:59.832Z,57.84
2023-01-11T18:56:01.833Z,56.95
2023-01-11T19:01:06.760Z,59.67
2023-01-11T19:06:11.978Z,59.17
2023-01-11T19:11:15.416Z,58.78
2023-01-11T19:16:18.765Z,58.39
2023-01-11T19:21:21.818Z,57.75
2023-01-11T19:26:23.910Z,57.45
2023-01-11T19:31:27.235Z,56.32
2023-01-11T19:36:32.088Z,55.27
2023-01-11T19:41:53.979Z,56.58
2023-01-11T19:47:10.398Z,56.05
2023-01-11T19:52:18.996Z,57.45
2023-01-11T19:57:21.960Z,56.74
2023-01-11T20:02:26.180Z,57.69
2023-01-11T20:07:28.265Z,56.69
2023-01-11T20:12:30.236Z,57.21
2023-01-11T20:17:35.481Z,57.87
2023-01-11T20:22:37.579Z,58.15
2023-01-11T20:27:39.823Z,58.16
2023-01-11T20:32:43.151Z,59.16
2023-01-11T20:37:45.054Z,57.80
2023-01-11T20:42:47.043Z,60.54
2023-01-11T20:47:50.397Z,59.80
2023-01-11T20:52:52.222Z,60.94
2023-01-11T20:57:54.411Z,61.71
2023-01-11T21:02:57.923Z,60.03
2023-01-11T21:08:00.552Z,60.44
2023-01-11T21:13:03.793Z,61.06
2023-01-11T21:18:07.268Z,64.95
2023-01-11T21:23:09.276Z,63.26
2023-01-11T21:28:11.308Z,62.98
2023-01-11T21:33:15.807Z,64.10
2023-01-11T21:38:17.795Z,63.69
2023-01-11T21:43:19.773Z,63.96
2023-01-11T21:48:23.328Z,63.82
2023-01-11T21:53:29.463Z,65.22
2023-01-11T21:58:31.971Z,65.96
2023-01-11T22:03:35.458Z,65.24
2023-01-11T22:08:38.515Z,65.97
2023-01-11T22:13:41.166Z,66.15
2023-01-11T22:18:45.685Z,68.11
2023-01-11T22:23:48.290Z,68.95
2023-01-11T22:29:11.790Z,66.85
2023-01-11T22:34:15.940Z,67.47
2023-01-11T22:39:19.567Z,68.16
2023-01-11T22:44:21.729Z,69.37
2023-01-11T22:49:25.177Z,71.66
2023-01-11T22:54:27.203Z,71.44
2023-01-11T22:59:29.235Z,71.49
2023-01-11T23:04:33.272Z,71.41
2023-01-11T23:09:35.349Z,72.51
2023-01-11T23:14:37.409Z,72.94
2023-01-11T23:19:41.152Z,72.32
2023-01-11T23:24:43.138Z,72.01
2023-01-11T23:29:45.086Z,73.32
2023-01-11T23:34:49.063Z,74.20
2023-01-11T23:39:51.051Z,74.87
2023-01-11T23:44:53.214Z,76.68
2023-01-11T23:49:58.106Z,76.38
2023-01-11T23:55:00.061Z,77.25
